Time;durP1;ratioP1;P1;durP2;ratioP2;P2;SDS_P1;SDS_P2;PMS_P1;PMS_P2;Temp;Humidity;BMP_temperature;BMP_pressure;BME280_temperature;BME280_humidity;BME280_pressure;Samples;Min_cycle;Max_cycle;Signal;HPM_P1;HPM_P2
2021/11/08 00:00:20;;;;;;;7.28;1.48;;;7.50;97.70;;;;;;5009030;28;20026;-61
2021/11/08 00:02:46;;;;;;;7.80;1.55;;;7.60;97.70;;;;;;5009986;28;20034;-60
2021/11/08 00:05:12;;;;;;;7.85;1.80;;;7.60;97.70;;;;;;5010484;28;20505;-61
2021/11/08 00:07:38;;;;;;;6.35;2.20;;;7.60;97.80;;;;;;5009976;28;20029;-61
2021/11/08 00:10:06;;;;;;;10.30;1.90;;;7.60;97.90;;;;;;5009498;28;20121;-61
2021/11/08 00:18:37;;;;;;;7.60;1.80;;;7.50;98.20;;;;;;5010634;28;20062;-61
2021/11/08 00:21:03;;;;;;;5.97;1.33;;;7.50;98.30;;;;;;5010712;28;20104;-61
2021/11/08 00:23:29;;;;;;;8.60;1.85;;;7.50;98.20;;;;;;4990154;28;20133;-61
2021/11/08 00:25:57;;;;;;;6.95;1.23;;;7.50;98.30;;;;;;5005252;28;20033;-61
2021/11/08 00:28:24;;;;;;;6.93;1.67;;;7.50;98.30;;;;;;5008011;28;20470;-61
2021/11/08 00:30:51;;;;;;;6.18;1.52;;;7.60;98.30;;;;;;5009386;28;20032;-61
2021/11/08 00:33:41;;;;;;;;;;;;;;;;;;;;;
2021/11/08 00:36:08;;;;;;;3.53;1.20;;;7.60;98.30;;;;;;4994980;28;20397;-61
2021/11/08 00:38:34;;;;;;;8.75;2.15;;;7.60;98.30;;;;;;4991946;28;20029;-61
2021/11/08 00:41:16;;;;;;;4.88;1.40;;;7.70;98.30;;;;;;5002544;28;20026;-61
2021/11/08 00:43:42;;;;;;;5.50;1.15;;;7.70;98.30;;;;;;4984841;28;20033;-61
2021/11/08 00:46:35;;;;;;;7.32;1.70;;;7.70;98.40;;;;;;5009799;28;20034;-61
2021/11/08 00:49:00;;;;;;;3.83;1.27;;;7.70;98.30;;;;;;5009329;28;20028;-61
2021/11/08 00:51:26;;;;;;;4.63;1.20;;;7.70;98.40;;;;;;5000491;28;20026;-61
2021/11/08 00:53:52;;;;;;;12.35;1.92;;;7.70;98.40;;;;;;5003816;28;20053;-61
2021/11/08 00:56:20;;;;;;;7.28;1.63;;;7.70;98.40;;;;;;4988996;28;20478;-61
2021/11/08 00:58:46;;;;;;;7.47;1.52;;;7.70;98.40;;;;;;4997391;28;20030;-61
2021/11/08 01:01:19;;;;;;;12.45;2.90;;;7.70;98.40;;;;;;5011968;28;20030;-61
2021/11/08 01:03:46;;;;;;;9.05;1.50;;;7.70;98.50;;;;;;5010026;28;20381;-61
2021/11/08 01:06:13;;;;;;;7.90;1.42;;;7.70;98.50;;;;;;5016376;28;20064;-61
2021/11/08 01:08:40;;;;;;;6.80;1.50;;;7.70;98.50;;;;;;5016455;28;20104;-61
2021/11/08 01:11:06;;;;;;;3.28;1.25;;;7.70;98.50;;;;;;5014309;28;20101;-61
2021/11/08 01:13:32;;;;;;;8.77;1.60;;;7.70;98.50;;;;;;5016086;28;20034;-61
2021/11/08 01:15:58;;;;;;;7.90;1.52;;;7.70;98.50;;;;;;5003574;28;20068;-61
2021/11/08 01:18:24;;;;;;;7.13;1.40;;;7.70;98.60;;;;;;5013102;28;20026;-61
2021/11/08 01:20:51;;;;;;;6.32;1.27;;;7.70;98.60;;;;;;5015934;28;20026;-61
2021/11/08 01:23:19;;;;;;;9.48;1.25;;;7.70;98.60;;;;;;5015382;28;20462;-61
2021/11/08 01:25:51;;;;;;;5.68;1.25;;;7.70;98.70;;;;;;5009279;28;20057;-61
2021/11/08 01:28:17;;;;;;;6.85;1.10;;;7.70;98.70;;;;;;5014374;28;20161;-61
2021/11/08 01:30:42;;;;;;;5.88;1.20;;;7.70;98.80;;;;;;5017085;28;20100;-61
2021/11/08 01:33:13;;;;;;;6.07;1.20;;;7.70;98.80;;;;;;5015783;28;20547;-61
2021/11/08 01:35:57;;;;;;;6.32;1.70;;;7.70;98.80;;;;;;4999172;28;20497;-61
2021/11/08 01:38:27;;;;;;;5.40;0.95;;;7.70;98.90;;;;;;5015895;28;20034;-61
2021/11/08 01:40:53;;;;;;;4.40;1.63;;;7.60;98.90;;;;;;5011426;28;20100;-61
2021/11/08 01:43:20;;;;;;;8.95;1.73;;;7.60;98.90;;;;;;5013243;28;20100;-61
2021/11/08 01:45:46;;;;;;;5.63;1.13;;;7.60;98.90;;;;;;5016186;28;20034;-61
2021/11/08 01:48:12;;;;;;;5.68;1.75;;;7.60;99.00;;;;;;5015962;28;20076;-61
2021/11/08 01:50:40;;;;;;;8.00;1.80;;;7.60;99.00;;;;;;5015314;28;20373;-61
2021/11/08 01:53:06;;;;;;;7.93;1.23;;;7.60;99.00;;;;;;5014739;28;20026;-61
2021/11/08 01:55:33;;;;;;;5.75;1.30;;;7.60;99.10;;;;;;5007446;28;20040;-61
2021/11/08 01:57:59;;;;;;;8.23;1.63;;;7.50;99.10;;;;;;5013187;28;20446;-61
2021/11/08 02:00:26;;;;;;;6.72;1.60;;;7.50;99.10;;;;;;5016640;28;20030;-61
2021/11/08 02:02:52;;;;;;;6.68;1.30;;;7.50;99.20;;;;;;5015152;28;20033;-61
2021/11/08 02:05:18;;;;;;;8.82;2.92;;;7.40;99.20;;;;;;5013473;28;20054;-61
2021/11/08 02:07:44;;;;;;;8.07;2.03;;;7.40;99.30;;;;;;5008526;28;20029;-61
2021/11/08 02:10:11;;;;;;;10.20;2.30;;;7.40;99.30;;;;;;5016061;28;20028;-61
2021/11/08 02:12:37;;;;;;;7.72;1.38;;;7.30;99.40;;;;;;5012631;28;20101;-61
2021/11/08 02:15:06;;;;;;;9.23;1.98;;;7.30;99.50;;;;;;5011664;28;20581;-61
2021/11/08 02:17:33;;;;;;;7.57;2.57;;;7.30;99.50;;;;;;5012499;28;20030;-61
2021/11/08 02:20:16;;;;;;;10.10;2.55;;;7.20;99.70;;;;;;5011582;28;20026;-61
2021/11/08 02:22:43;;;;;;;9.85;2.53;;;7.10;99.80;;;;;;5012475;28;20422;-61
2021/11/08 02:25:09;;;;;;;11.00;2.38;;;7.00;99.90;;;;;;5005413;28;20382;-60
2021/11/08 02:27:37;;;;;;;8.85;2.03;;;7.00;99.90;;;;;;5003504;28;20397;-61
2021/11/08 02:30:05;;;;;;;7.45;2.00;;;7.00;99.90;;;;;;5008974;28;20018;-61
2021/11/08 02:32:31;;;;;;;7.50;1.85;;;7.00;99.90;;;;;;5012476;28;20053;-60
2021/11/08 02:34:56;;;;;;;8.43;1.65;;;7.00;99.90;;;;;;5010455;28;20061;-61
2021/11/08 02:37:22;;;;;;;7.88;1.67;;;7.00;99.90;;;;;;5005876;28;20111;-61
2021/11/08 02:39:50;;;;;;;18.33;3.35;;;7.00;99.90;;;;;;5007793;28;20022;-61
2021/11/08 02:42:16;;;;;;;8.93;2.75;;;6.90;99.90;;;;;;5002322;28;20024;-60
2021/11/08 02:44:42;;;;;;;7.53;2.50;;;6.90;99.90;;;;;;5012200;28;20018;-61
2021/11/08 02:47:08;;;;;;;7.32;1.65;;;6.90;99.90;;;;;;5012573;28;20036;-60
2021/11/08 02:49:38;;;;;;;7.70;1.65;;;6.90;99.90;;;;;;5012601;28;20062;-61
2021/11/08 02:52:06;;;;;;;4.28;1.42;;;6.90;99.90;;;;;;5012403;28;20112;-61
2021/11/08 02:54:37;;;;;;;4.40;1.40;;;6.90;99.90;;;;;;4994195;28;20107;-61
2021/11/08 02:57:34;;;;;;;;;;;;;;;;;;;;;
2021/11/08 03:00:01;;;;;;;6.03;1.88;;;6.90;99.90;;;;;;5012096;28;20056;-60
2021/11/08 03:02:27;;;;;;;8.68;1.80;;;6.80;99.90;;;;;;5010338;28;20018;-60
2021/11/08 03:04:54;;;;;;;7.57;2.17;;;6.80;99.90;;;;;;5005257;28;20048;-60
2021/11/08 03:07:22;;;;;;;7.05;2.08;;;6.80;99.90;;;;;;5005594;28;20023;-61
2021/11/08 03:09:54;;;;;;;7.55;1.88;;;6.80;99.90;;;;;;5006018;28;20032;-60
2021/11/08 03:12:25;;;;;;;6.47;1.70;;;6.80;99.90;;;;;;5011738;28;20030;-61
2021/11/08 03:17:22;;;;;;;5.45;1.33;;;6.70;99.90;;;;;;5010086;28;20026;-61
2021/11/08 03:19:48;;;;;;;9.63;2.50;;;6.70;99.90;;;;;;5005718;28;20080;-60
2021/11/08 03:22:18;;;;;;;7.35;2.00;;;6.70;99.90;;;;;;4994035;28;20018;-61
2021/11/08 03:27:22;;;;;;;7.65;1.80;;;6.60;99.90;;;;;;5008893;28;19910;-60
2021/11/08 03:29:48;;;;;;;7.88;2.40;;;6.60;99.90;;;;;;4993149;28;20057;-60
2021/11/08 03:32:16;;;;;;;7.60;2.38;;;6.50;99.90;;;;;;4993818;28;20022;-61
2021/11/08 03:34:50;;;;;;;11.40;2.65;;;6.60;99.90;;;;;;5011544;28;20060;-61
2021/11/08 03:37:16;;;;;;;6.93;2.00;;;6.60;99.90;;;;;;4994020;28;20038;-61
2021/11/08 03:39:41;;;;;;;5.57;2.00;;;6.60;99.90;;;;;;5003550;28;20083;-61
2021/11/08 03:42:07;;;;;;;8.73;2.08;;;6.60;99.90;;;;;;5009384;28;20026;-60
2021/11/08 03:44:33;;;;;;;7.00;1.83;;;6.50;99.90;;;;;;5011061;28;20030;-63
2021/11/08 03:46:59;;;;;;;6.07;2.17;;;6.50;99.90;;;;;;5010602;28;20029;-60
2021/11/08 03:49:25;;;;;;;6.28;2.50;;;6.50;99.90;;;;;;5003287;28;20030;-60
2021/11/08 03:51:51;;;;;;;4.20;2.10;;;6.50;99.90;;;;;;5011308;28;20026;-61
2021/11/08 03:54:17;;;;;;;7.03;1.70;;;6.50;99.90;;;;;;5009840;28;20041;-60
2021/11/08 03:56:42;;;;;;;8.18;2.00;;;6.50;99.90;;;;;;5011339;28;20398;-60
2021/11/08 03:59:08;;;;;;;7.05;1.85;;;6.50;99.90;;;;;;5011015;28;20025;-60
2021/11/08 04:01:35;;;;;;;8.98;3.65;;;6.50;99.90;;;;;;5003346;28;20021;-61
2021/11/08 04:04:03;;;;;;;6.85;1.95;;;6.50;99.90;;;;;;5001354;28;20042;-60
2021/11/08 04:06:29;;;;;;;9.27;2.25;;;6.50;99.90;;;;;;5010988;28;20617;-60
2021/11/08 04:08:55;;;;;;;6.32;1.80;;;6.50;99.90;;;;;;5010854;28;20030;-60
2021/11/08 04:11:21;;;;;;;10.88;2.50;;;6.40;99.90;;;;;;5009288;28;20021;-61
2021/11/08 04:13:46;;;;;;;5.78;1.98;;;6.50;99.90;;;;;;5010704;28;20426;-61
2021/11/08 04:16:36;;;;;;;6.55;1.60;;;6.40;99.90;;;;;;5010796;28;20041;-60
2021/11/08 04:19:03;;;;;;;6.78;2.00;;;6.50;99.90;;;;;;5009217;28;20080;-61
2021/11/08 04:21:29;;;;;;;4.88;1.92;;;6.40;99.90;;;;;;4993883;28;20537;-60
2021/11/08 04:23:56;;;;;;;10.38;3.38;;;6.40;99.90;;;;;;5010335;28;20033;-60
2021/11/08 04:27:05;;;;;;;;;;;;;;;;;;;;;
2021/11/08 04:29:26;;;;;;;9.90;2.20;;;6.40;99.90;;;;;;5008381;28;20037;-60
2021/11/08 04:31:52;;;;;;;4.40;2.00;;;6.30;99.90;;;;;;5010772;28;20033;-60
2021/11/08 04:41:47;;;;;;;7.68;2.53;;;6.40;99.90;;;;;;5010349;28;20390;-61
2021/11/08 04:54:53;;;;;;;7.72;2.17;;;6.40;99.90;;;;;;5009988;28;20437;-61
2021/11/08 05:24:37;;;;;;;5.35;2.15;;;6.60;99.90;;;;;;5008683;28;20050;-61
2021/11/08 05:31:55;;;;;;;9.98;2.42;;;6.60;99.90;;;;;;5004125;28;20387;-60
2021/11/08 05:34:21;;;;;;;12.80;3.08;;;6.60;99.90;;;;;;5007410;28;20026;-61
2021/11/08 05:36:48;;;;;;;11.00;3.72;;;6.50;99.90;;;;;;5008141;28;20390;-61
2021/11/08 05:39:15;;;;;;;12.50;2.72;;;6.50;99.90;;;;;;5008755;28;20390;-60
2021/11/08 05:41:42;;;;;;;8.77;2.53;;;6.50;99.90;;;;;;5006559;28;20105;-60
2021/11/08 05:44:07;;;;;;;3.78;2.22;;;6.50;99.90;;;;;;5009836;28;20025;-60
2021/11/08 05:46:34;;;;;;;8.77;2.03;;;6.50;99.90;;;;;;5008349;28;20367;-60
2021/11/08 05:49:01;;;;;;;8.82;2.25;;;6.50;99.90;;;;;;5012467;28;20026;-60
2021/11/08 05:51:27;;;;;;;9.05;2.22;;;6.50;99.90;;;;;;4991894;28;20053;-60
2021/11/08 05:53:53;;;;;;;9.90;2.42;;;6.50;99.90;;;;;;5006797;28;20022;-60
2021/11/08 05:56:29;;;;;;;7.05;2.00;;;6.50;99.90;;;;;;5005420;28;20033;-61
2021/11/08 06:51:24;;;;;;;7.82;3.10;;;6.50;99.90;;;;;;5013994;28;20022;-60
2021/11/08 06:53:54;;;;;;;14.48;3.92;;;6.60;99.90;;;;;;5013900;28;20470;-61
2021/11/08 06:56:25;;;;;;;9.18;3.80;;;6.50;99.90;;;;;;5014187;28;20481;-60
2021/11/08 06:58:51;;;;;;;13.30;3.42;;;6.60;99.90;;;;;;5013544;28;20592;-61
2021/11/08 07:01:16;;;;;;;11.45;3.45;;;6.60;99.90;;;;;;4996293;28;20105;-60
2021/11/08 07:03:42;;;;;;;9.27;3.60;;;6.60;99.90;;;;;;5005875;28;20072;-60
2021/11/08 07:06:07;;;;;;;13.38;3.97;;;6.70;99.90;;;;;;5013067;28;20022;-60
2021/11/08 07:08:49;;;;;;;12.55;4.25;;;6.60;99.90;;;;;;5014037;28;20422;-60
2021/11/08 07:11:15;;;;;;;11.70;3.63;;;6.70;99.90;;;;;;5011565;28;20047;-60
2021/11/08 07:13:41;;;;;;;11.00;3.67;;;6.70;99.90;;;;;;4994025;28;20363;-61
2021/11/08 07:16:07;;;;;;;9.45;3.65;;;6.80;99.90;;;;;;5013641;28;20041;-60
2021/11/08 07:18:42;;;;;;;13.63;4.53;;;6.80;99.90;;;;;;4996642;28;20042;-60
2021/11/08 07:21:08;;;;;;;10.63;3.30;;;6.80;99.90;;;;;;5010110;28;20026;-61
2021/11/08 07:23:33;;;;;;;8.80;3.88;;;6.80;99.90;;;;;;5013146;28;20109;-60
2021/11/08 07:26:00;;;;;;;12.38;4.30;;;6.90;99.90;;;;;;5009247;28;20498;-60
2021/11/08 07:28:28;;;;;;;9.60;3.63;;;6.90;99.90;;;;;;5011977;28;20026;-61
2021/11/08 07:30:53;;;;;;;8.35;3.40;;;6.90;99.90;;;;;;5013545;28;20029;-60
2021/11/08 07:33:32;;;;;;;13.85;4.45;;;7.00;99.90;;;;;;4995378;28;20441;-60
2021/11/08 07:35:59;;;;;;;;;;;7.00;99.90;;;;;;4952373;28;20035;-60
2021/11/08 07:38:24;;;;;;;12.68;3.97;;;7.00;99.90;;;;;;4943737;29;20280;-61
2021/11/08 07:41:00;;;;;;;10.65;4.43;;;7.00;99.90;;;;;;4949148;29;20082;-60
2021/11/08 07:43:26;;;;;;;11.35;5.03;;;7.10;99.90;;;;;;4952676;29;20073;-60
2021/11/08 07:45:52;;;;;;;12.80;4.32;;;7.10;99.90;;;;;;4952325;29;20070;-60
2021/11/08 07:48:17;;;;;;;12.05;3.90;;;7.10;99.90;;;;;;4936245;29;20449;-61
2021/11/08 07:50:43;;;;;;;14.48;4.47;;;7.20;99.90;;;;;;4952516;29;20070;-61
2021/11/08 07:53:09;;;;;;;19.30;5.03;;;7.20;99.90;;;;;;4952756;29;20074;-60
2021/11/08 07:58:25;;;;;;;12.93;3.95;;;7.30;99.90;;;;;;4952526;29;20038;-60
2021/11/08 08:00:51;;;;;;;7.75;3.70;;;7.30;99.90;;;;;;4950691;29;20023;-61
2021/11/08 08:03:22;;;;;;;12.48;4.20;;;7.30;99.90;;;;;;4951771;29;20034;-62
2021/11/08 08:05:48;;;;;;;14.40;4.32;;;7.40;99.90;;;;;;4950736;29;20051;-60
2021/11/08 08:08:37;;;;;;;12.15;4.22;;;7.40;99.90;;;;;;4949585;29;20031;-61
2021/11/08 08:11:05;;;;;;;17.37;4.70;;;7.50;99.90;;;;;;4940857;28;20597;-60
2021/11/08 08:13:34;;;;;;;12.38;4.28;;;7.50;99.90;;;;;;4951464;29;20507;-61
2021/11/08 08:16:01;;;;;;;13.05;3.80;;;7.60;99.90;;;;;;4951831;29;20126;-61
2021/11/08 08:18:29;;;;;;;14.60;4.30;;;7.70;99.90;;;;;;4949693;29;20138;-61
2021/11/08 08:20:55;;;;;;;13.73;4.22;;;7.70;99.90;;;;;;4951362;29;20024;-60
2021/11/08 08:23:21;;;;;;;13.48;4.47;;;7.80;99.90;;;;;;4951582;29;20035;-60
2021/11/08 08:25:47;;;;;;;15.18;4.35;;;7.80;99.90;;;;;;4951575;29;20034;-60
2021/11/08 08:28:12;;;;;;;10.77;3.63;;;7.90;99.90;;;;;;4935196;29;20754;-61
2021/11/08 08:30:38;;;;;;;10.48;3.10;;;7.90;99.90;;;;;;4950558;29;20083;-61
2021/11/08 08:33:04;;;;;;;11.85;3.17;;;8.00;99.90;;;;;;4951741;29;20042;-63
2021/11/08 08:35:30;;;;;;;12.38;3.55;;;8.10;99.90;;;;;;4950824;29;20146;-61
2021/11/08 08:37:55;;;;;;;13.70;4.03;;;8.10;99.90;;;;;;4932580;29;20151;-61
2021/11/08 08:40:21;;;;;;;10.93;3.38;;;8.20;99.90;;;;;;5008624;28;20544;-61
2021/11/08 08:42:47;;;;;;;8.55;3.88;;;8.30;99.90;;;;;;5005381;28;20033;-60
2021/11/08 08:45:12;;;;;;;13.13;3.72;;;8.40;99.90;;;;;;5011919;28;20026;-61
2021/11/08 08:47:38;;;;;;;16.75;3.92;;;8.50;99.90;;;;;;4993574;28;20042;-61
2021/11/08 08:50:05;;;;;;;13.00;4.28;;;8.50;99.90;;;;;;5008182;28;20109;-61
2021/11/08 08:52:31;;;;;;;14.88;4.68;;;8.60;99.90;;;;;;5011745;28;20121;-60
2021/11/08 08:54:57;;;;;;;15.18;3.92;;;8.60;99.90;;;;;;5011913;28;20061;-61
2021/11/08 08:57:23;;;;;;;17.40;4.60;;;8.70;99.90;;;;;;5009821;28;20088;-61
2021/11/08 08:59:50;;;;;;;14.25;4.18;;;8.70;99.90;;;;;;5003649;28;20067;-60
2021/11/08 09:02:15;;;;;;;11.50;3.83;;;8.70;99.90;;;;;;5011867;28;20489;-61
2021/11/08 09:04:41;;;;;;;11.80;3.30;;;8.70;99.90;;;;;;5011371;28;20080;-61
2021/11/08 09:07:08;;;;;;;11.65;3.15;;;8.80;99.90;;;;;;5007912;28;20037;-61
2021/11/08 09:09:38;;;;;;;11.63;3.78;;;8.80;99.90;;;;;;5011693;28;20065;-61
2021/11/08 09:12:05;;;;;;;10.07;2.97;;;8.80;99.90;;;;;;5011985;28;20065;-60
2021/11/08 09:14:31;;;;;;;8.00;3.28;;;8.80;99.90;;;;;;5011278;28;20084;-61
2021/11/08 09:16:58;;;;;;;12.25;3.13;;;8.80;99.90;;;;;;5009215;28;20026;-61
2021/11/08 09:19:23;;;;;;;12.48;3.25;;;8.90;99.90;;;;;;5006972;28;20052;-61
2021/11/08 09:21:49;;;;;;;13.77;3.28;;;8.90;99.90;;;;;;5012775;28;20034;-61
2021/11/08 09:24:15;;;;;;;15.00;3.70;;;8.90;99.90;;;;;;5015343;28;20489;-61
2021/11/08 09:26:42;;;;;;;10.68;3.22;;;9.00;99.90;;;;;;5015140;28;20030;-61
2021/11/08 09:29:07;;;;;;;12.65;3.45;;;9.00;99.90;;;;;;5012412;28;20037;-60
2021/11/08 09:31:41;;;;;;;16.25;4.00;;;9.00;99.90;;;;;;5015254;28;20038;-61
2021/11/08 09:34:09;;;;;;;11.40;3.17;;;9.10;99.90;;;;;;4991910;28;20399;-61
2021/11/08 09:36:37;;;;;;;12.20;3.00;;;9.10;99.90;;;;;;5014875;28;20018;-61
2021/11/08 09:39:20;;;;;;;6.85;2.40;;;9.10;99.90;;;;;;5014385;28;20029;-61
2021/11/08 09:41:47;;;;;;;11.95;3.50;;;9.20;99.90;;;;;;4996380;28;20045;-61
2021/11/08 09:44:13;;;;;;;9.10;3.47;;;9.20;99.90;;;;;;5012917;28;20109;-61
2021/11/08 09:46:40;;;;;;;11.38;2.85;;;9.20;99.90;;;;;;4999821;28;20022;-61
2021/11/08 09:49:07;;;;;;;14.38;3.60;;;9.30;99.90;;;;;;5011092;28;20081;-61
2021/11/08 09:51:40;;;;;;;12.18;3.38;;;9.40;99.90;;;;;;4983156;28;20034;-61
2021/11/08 09:54:06;;;;;;;9.93;3.30;;;9.50;99.90;;;;;;5015734;28;20032;-61
2021/11/08 09:56:32;;;;;;;11.93;3.22;;;9.60;99.90;;;;;;5014471;28;20065;-61
2021/11/08 09:59:00;;;;;;;10.85;3.78;;;9.70;99.90;;;;;;5009463;28;20034;-61
2021/11/08 10:01:27;;;;;;;11.23;3.42;;;9.80;99.90;;;;;;4996740;28;20466;-61
2021/11/08 10:03:55;;;;;;;11.77;3.60;;;9.80;99.90;;;;;;4996358;28;20042;-61
2021/11/08 10:06:21;;;;;;;13.38;4.07;;;9.90;99.90;;;;;;4996822;28;20120;-61
2021/11/08 10:08:48;;;;;;;16.38;3.53;;;9.90;99.90;;;;;;4997078;28;20454;-61
2021/11/08 10:11:16;;;;;;;14.95;4.15;;;10.00;99.90;;;;;;5014118;28;20041;-61
2021/11/08 10:14:18;;;;;;;9.65;3.38;;;10.00;99.90;;;;;;5014184;28;20448;-61
2021/11/08 10:16:47;;;;;;;13.43;3.70;;;10.00;99.90;;;;;;5013971;28;20072;-61
2021/11/08 10:19:21;;;;;;;13.03;3.30;;;10.00;99.90;;;;;;5015088;28;20040;-61
2021/11/08 10:21:50;;;;;;;12.55;3.70;;;10.00;99.90;;;;;;5014179;28;20465;-61
2021/11/08 10:24:19;;;;;;;15.65;4.47;;;10.10;99.90;;;;;;5008781;28;20026;-61
2021/11/08 10:26:45;;;;;;;14.88;4.22;;;10.20;99.90;;;;;;4996364;28;20030;-61
2021/11/08 10:29:17;;;;;;;12.38;4.47;;;10.20;99.90;;;;;;5012527;28;20029;-61
2021/11/08 10:31:49;;;;;;;14.73;4.50;;;10.30;99.90;;;;;;5010862;28;20022;-61
2021/11/08 10:34:16;;;;;;;11.68;3.72;;;10.30;99.90;;;;;;5010773;28;20018;-61
2021/11/08 10:37:36;;;;;;;14.57;3.92;;;10.40;99.90;;;;;;5007332;28;20401;-61
2021/11/08 10:40:43;;;;;;;16.00;4.07;;;10.50;99.90;;;;;;4996657;28;20081;-61
2021/11/08 10:43:10;;;;;;;12.43;4.45;;;10.50;99.90;;;;;;5012766;28;20121;-61
2021/11/08 10:46:10;;;;;;;17.13;4.60;;;10.60;99.90;;;;;;5006363;28;20025;-61
2021/11/08 10:48:41;;;;;;;14.38;4.35;;;10.70;99.90;;;;;;4981473;28;20041;-61
2021/11/08 10:51:09;;;;;;;16.73;3.70;;;10.70;99.90;;;;;;5012841;28;20058;-61
2021/11/08 10:53:59;;;;;;;19.25;7.15;;;10.90;99.90;;;;;;5013510;28;20030;-61
2021/11/08 10:56:34;;;;;;;15.90;4.78;;;11.10;99.70;;;;;;4994028;28;20038;-61
2021/11/08 10:59:09;;;;;;;15.25;4.30;;;11.30;99.70;;;;;;5009130;28;20080;-61
2021/11/08 11:01:40;;;;;;;16.95;4.13;;;12.20;99.70;;;;;;5006749;28;20026;-61
2021/11/08 11:04:06;;;;;;;14.07;3.35;;;13.90;98.80;;;;;;5013999;28;20533;-62
2021/11/08 11:06:52;;;;;;;9.35;2.83;;;15.10;96.70;;;;;;5012376;28;20022;-61
2021/11/08 11:09:22;;;;;;;10.27;3.08;;;16.00;94.50;;;;;;5013648;28;20066;-61
2021/11/08 11:11:49;;;;;;;;;;;16.10;93.60;;;;;;5014217;28;20096;-61
2021/11/08 11:14:15;;;;;;;13.80;3.47;;;16.20;93.50;;;;;;5013703;28;19909;-61
2021/11/08 11:16:49;;;;;;;8.30;2.35;;;16.30;92.40;;;;;;5008002;28;20035;-61
2021/11/08 11:19:17;;;;;;;12.90;2.92;;;16.40;91.50;;;;;;5010769;28;20045;-61
2021/11/08 11:21:59;;;;;;;10.70;3.05;;;16.90;90.20;;;;;;5013246;28;20478;-61
2021/11/08 11:24:42;;;;;;;11.32;4.38;;;17.40;88.10;;;;;;5007444;28;20022;-61
2021/11/08 11:27:13;;;;;;;16.92;3.50;;;18.70;87.10;;;;;;5008193;28;20073;-61
2021/11/08 11:29:40;;;;;;;13.43;3.25;;;19.90;80.90;;;;;;5012912;28;20022;-61
2021/11/08 11:32:25;;;;;;;10.57;3.53;;;19.70;76.40;;;;;;5006003;28;20053;-61
2021/11/08 11:34:52;;;;;;;14.15;4.22;;;19.00;76.70;;;;;;5005856;28;20070;-62
2021/11/08 11:37:20;;;;;;;11.05;3.20;;;18.10;76.90;;;;;;5011936;28;20088;-61
2021/11/08 11:40:14;;;;;;;10.68;3.13;;;17.50;79.00;;;;;;5012677;28;20041;-61
2021/11/08 11:46:25;;;;;;;11.93;3.72;;;16.80;80.60;;;;;;4935846;28;20035;-61
2021/11/08 11:48:52;;;;;;;11.35;3.00;;;16.50;80.90;;;;;;5000688;28;20076;-61
2021/11/08 11:51:27;;;;;;;11.77;2.95;;;16.40;81.50;;;;;;5011724;28;20030;-61
2021/11/08 11:53:54;;;;;;;8.18;2.67;;;16.40;81.90;;;;;;5004527;28;20156;-61
2021/11/08 11:56:22;;;;;;;12.98;2.88;;;16.40;82.10;;;;;;5012438;28;20072;-61
2021/11/08 11:58:49;;;;;;;10.57;2.92;;;16.60;82.10;;;;;;4987763;28;20109;-61
2021/11/08 12:01:17;;;;;;;8.68;2.60;;;16.90;81.10;;;;;;5003213;28;20027;-61
2021/11/08 12:03:44;;;;;;;14.02;3.88;;;16.70;80.30;;;;;;5010934;28;20493;-62
2021/11/08 12:06:12;;;;;;;9.45;2.60;;;16.70;81.00;;;;;;5011226;28;20029;-62
2021/11/08 12:08:57;;;;;;;10.48;2.60;;;16.60;80.90;;;;;;5011077;28;20486;-61
2021/11/08 12:11:33;;;;;;;8.90;2.97;;;16.60;80.50;;;;;;5009549;28;20335;-62
2021/11/08 12:14:03;;;;;;;10.32;3.70;;;16.50;80.80;;;;;;5007949;28;20030;-62
2021/11/08 12:16:29;;;;;;;9.20;2.58;;;16.30;80.80;;;;;;5006981;28;20485;-62
2021/11/08 12:19:18;;;;;;;13.30;3.60;;;16.10;81.30;;;;;;5007994;28;20042;-62
2021/11/08 12:21:44;;;;;;;11.60;3.58;;;15.90;81.50;;;;;;5007932;28;20033;-61
2021/11/08 12:24:22;;;;;;;10.35;2.85;;;15.70;82.20;;;;;;5012899;28;20026;-62
2021/11/08 12:26:51;;;;;;;11.50;3.28;;;15.60;82.40;;;;;;4989203;28;20385;-61
2021/11/08 12:29:20;;;;;;;12.60;3.00;;;15.30;82.50;;;;;;5007699;28;20100;-61
2021/11/08 12:31:47;;;;;;;11.05;3.17;;;15.20;82.90;;;;;;5005454;28;20103;-61
2021/11/08 12:34:29;;;;;;;14.57;3.38;;;15.10;82.80;;;;;;5006656;28;20421;-62
2021/11/08 12:37:04;;;;;;;13.85;3.30;;;15.10;83.30;;;;;;4989334;28;20045;-62
2021/11/08 12:39:30;;;;;;;11.02;2.63;;;15.20;83.30;;;;;;4988931;28;20083;-61
2021/11/08 12:42:03;;;;;;;12.13;3.63;;;15.10;83.50;;;;;;5007246;28;20014;-62
2021/11/08 12:44:44;;;;;;;11.75;3.33;;;15.10;83.70;;;;;;5007809;28;20026;-61
2021/11/08 12:47:14;;;;;;;11.18;2.83;;;15.10;83.70;;;;;;5006932;28;20433;-61
2021/11/08 12:52:59;;;;;;;13.15;3.30;;;15.10;83.90;;;;;;4967478;28;20034;-61
2021/11/08 12:55:25;;;;;;;12.43;3.40;;;15.10;84.30;;;;;;5010486;28;20041;-61
2021/11/08 13:01:49;;;;;;;9.05;2.00;;;15.10;84.00;;;;;;4901250;28;20096;-61
2021/11/08 13:04:17;;;;;;;7.45;2.25;;;15.10;84.90;;;;;;4992932;28;20037;-61
2021/11/08 13:06:44;;;;;;;9.60;2.60;;;15.00;84.60;;;;;;5010258;28;20034;-61
2021/11/08 13:09:22;;;;;;;13.18;2.97;;;15.00;84.50;;;;;;5010380;28;20054;-61
2021/11/08 13:11:56;;;;;;;11.95;3.05;;;15.00;84.50;;;;;;5011528;28;20026;-61
2021/11/08 13:15:05;;;;;;;10.00;2.30;;;15.00;84.50;;;;;;5008833;28;20116;-62
2021/11/08 13:17:44;;;;;;;;;;;;;;;;;;;;;
2021/11/08 13:20:23;;;;;;;10.27;2.55;;;14.90;85.00;;;;;;5008179;28;20030;-62
2021/11/08 13:22:53;;;;;;;11.38;2.67;;;14.90;85.00;;;;;;5009972;28;20076;-62
2021/11/08 13:25:31;;;;;;;11.60;2.95;;;14.80;85.20;;;;;;4992608;28;20111;-61
2021/11/08 13:28:01;;;;;;;8.93;2.53;;;14.70;85.10;;;;;;4990715;28;20030;-61
2021/11/08 13:30:39;;;;;;;14.95;2.90;;;14.60;85.40;;;;;;5009241;28;20099;-61
2021/11/08 13:33:18;;;;;;;14.02;2.72;;;14.40;85.40;;;;;;5004512;28;20030;-61
2021/11/08 13:35:45;;;;;;;15.68;2.85;;;14.30;85.90;;;;;;4977817;28;20054;-61
2021/11/08 13:39:25;;;;;;;11.95;2.75;;;14.30;86.30;;;;;;5012021;28;20052;-61
2021/11/08 13:41:46;;;;;;;11.02;2.65;;;14.30;86.50;;;;;;4973833;28;20030;-61
2021/11/08 13:44:13;;;;;;;9.38;2.40;;;14.20;86.60;;;;;;5010353;28;20028;-61
2021/11/08 13:46:50;;;;;;;8.35;1.90;;;14.10;86.90;;;;;;5008158;28;20474;-62
2021/11/08 13:49:19;;;;;;;12.15;2.22;;;14.10;87.00;;;;;;5010433;28;20110;-61
2021/11/08 13:51:51;;;;;;;13.65;2.90;;;14.10;87.00;;;;;;5010477;28;20026;-61
2021/11/08 13:54:22;;;;;;;12.38;2.75;;;14.00;87.20;;;;;;5007568;28;20034;-61
2021/11/08 13:56:56;;;;;;;13.77;3.03;;;14.00;87.10;;;;;;5010191;28;20556;-61
2021/11/08 13:59:31;;;;;;;6.97;1.90;;;14.00;87.50;;;;;;5011028;28;20036;-61
2021/11/08 14:02:25;;;;;;;10.00;1.90;;;14.00;87.50;;;;;;5007796;28;20049;-61
2021/11/08 14:04:56;;;;;;;10.18;2.33;;;14.00;87.60;;;;;;5010068;28;20045;-61
2021/11/08 14:07:23;;;;;;;11.43;2.90;;;14.00;87.70;;;;;;5008473;28;20022;-61
2021/11/08 14:09:49;;;;;;;6.32;1.85;;;14.10;87.60;;;;;;5008088;28;20041;-62
2021/11/08 14:12:31;;;;;;;12.65;2.90;;;14.00;87.70;;;;;;5011780;28;20025;-61
2021/11/08 14:14:57;;;;;;;9.05;2.05;;;14.10;87.60;;;;;;5009542;28;20022;-61
2021/11/08 14:17:27;;;;;;;13.63;2.10;;;14.00;87.80;;;;;;5007625;28;20030;-61
2021/11/08 14:20:12;;;;;;;9.85;1.90;;;14.00;87.80;;;;;;5014044;28;20014;-61
2021/11/08 14:22:42;;;;;;;11.77;2.42;;;14.00;88.10;;;;;;5014813;28;20105;-61
2021/11/08 14:25:10;;;;;;;12.70;2.17;;;14.00;88.00;;;;;;4996769;28;20359;-61
2021/11/08 14:27:40;;;;;;;7.90;1.88;;;14.00;88.00;;;;;;5014551;28;20033;-61
2021/11/08 14:30:21;;;;;;;13.00;2.47;;;13.90;88.00;;;;;;4990425;28;20442;-61
2021/11/08 14:33:18;;;;;;;;;;;;;;;;;;;;;
2021/11/08 14:35:43;;;;;;;9.18;1.85;;;13.90;88.20;;;;;;5012975;28;20026;-61
2021/11/08 14:38:38;;;;;;;10.80;2.58;;;13.90;88.30;;;;;;5012298;28;20109;-61
2021/11/08 14:41:45;;;;;;;17.17;3.58;;;13.90;88.30;;;;;;5014423;28;20028;-62
2021/11/08 14:44:10;;;;;;;9.48;2.40;;;13.70;88.50;;;;;;5001228;28;20023;-61
2021/11/08 14:50:04;;;;;;;8.52;2.08;;;13.60;89.00;;;;;;4969187;28;20065;-61
2021/11/08 14:52:42;;;;;;;10.63;2.35;;;13.50;89.30;;;;;;5013186;28;20036;-62
2021/11/08 14:55:16;;;;;;;13.70;2.55;;;13.40;89.60;;;;;;5012319;28;20030;-62
2021/11/08 14:57:44;;;;;;;7.07;1.95;;;13.40;89.90;;;;;;5009690;28;20029;-61
2021/11/08 15:00:18;;;;;;;7.07;1.65;;;13.30;90.00;;;;;;5011451;28;20018;-61
2021/11/08 15:02:45;;;;;;;9.85;2.03;;;13.30;90.10;;;;;;5009781;28;20096;-62
2021/11/08 15:05:14;;;;;;;10.75;2.03;;;13.20;90.20;;;;;;5012625;28;20041;-61
2021/11/08 15:07:42;;;;;;;7.13;1.85;;;13.20;90.30;;;;;;5011933;28;20490;-61
2021/11/08 15:10:35;;;;;;;9.18;2.03;;;13.20;90.30;;;;;;5013523;28;20115;-62
2021/11/08 15:13:05;;;;;;;8.93;1.90;;;13.20;90.40;;;;;;4978996;28;20038;-62
2021/11/08 15:16:17;;;;;;;;;;;;;;;;;;;;;
2021/11/08 15:21:59;;;;;;;8.23;1.92;;;13.00;90.70;;;;;;4984009;28;20036;-61
2021/11/08 15:24:28;;;;;;;11.75;2.22;;;12.90;90.80;;;;;;5012561;28;20014;-61
2021/11/08 15:26:57;;;;;;;8.73;1.90;;;12.90;90.90;;;;;;5011849;28;20021;-62